TimeEDT,TemperatureF,Dew PointF,Humidity,Sea Level PressureIn,VisibilityMPH,Wind Direction,Wind SpeedMPH,Gust SpeedMPH,PrecipitationIn,Events,Conditions,WindDirDegrees,DateUTC
12:15 AM,71.6,70.9,98,29.96,5.0,Calm,Calm,-,N/A,,Scattered Clouds,0,2013-08-02 04:15:00
12:35 AM,70.5,69.8,98,29.96,4.0,Calm,Calm,-,N/A,,Clear,0,2013-08-02 04:35:00
12:55 AM,69.1,68.5,98,29.97,4.0,Calm,Calm,-,N/A,,Clear,0,2013-08-02 04:55:00
1:15 AM,68.4,68.0,99,29.96,4.0,Calm,Calm,-,N/A,,Clear,0,2013-08-02 05:15:00
1:35 AM,68.2,68.0,99,29.96,4.0,Calm,Calm,-,N/A,,Clear,0,2013-08-02 05:35:00
1:55 AM,67.5,67.3,99,29.96,3.0,Calm,Calm,-,N/A,,Clear,0,2013-08-02 05:55:00
2:15 AM,67.1,66.7,99,29.95,2.5,Calm,Calm,-,N/A,,Clear,0,2013-08-02 06:15:00
2:35 AM,67.3,67.3,100,29.95,3.0,Calm,Calm,-,N/A,,Clear,0,2013-08-02 06:35:00
2:55 AM,65.8,65.7,99,29.95,4.0,Calm,Calm,-,N/A,,Clear,0,2013-08-02 06:55:00
3:15 AM,67.3,67.3,100,29.95,5.0,Calm,Calm,-,N/A,,Clear,0,2013-08-02 07:15:00
3:35 AM,64.6,64.6,100,29.96,4.0,Calm,Calm,-,N/A,,Clear,0,2013-08-02 07:35:00
3:55 AM,64.6,64.6,100,29.95,1.0,Calm,Calm,-,N/A,,Mist,0,2013-08-02 07:55:00
4:15 AM,64.4,64.4,100,29.95,4.0,Calm,Calm,-,N/A,,Clear,0,2013-08-02 08:15:00
4:35 AM,63.5,63.5,100,29.96,3.0,Calm,Calm,-,N/A,,Clear,0,2013-08-02 08:35:00
4:55 AM,63.3,63.3,100,29.97,4.0,Calm,Calm,-,N/A,,Scattered Clouds,0,2013-08-02 08:55:00
5:15 AM,63.1,63.1,100,29.97,4.0,Calm,Calm,-,N/A,,Mostly Cloudy,0,2013-08-02 09:15:00
5:35 AM,62.6,62.6,100,29.97,4.0,Calm,Calm,-,N/A,,Scattered Clouds,0,2013-08-02 09:35:00
5:55 AM,62.6,62.6,100,29.97,1.2,Calm,Calm,-,N/A,,Mist,0,2013-08-02 09:55:00
6:15 AM,62.1,62.1,100,29.98,4.0,Calm,Calm,-,N/A,,Clear,0,2013-08-02 10:15:00
6:35 AM,63.0,63.0,100,29.99,4.0,Calm,Calm,-,N/A,,Clear,0,2013-08-02 10:35:00
6:55 AM,62.2,62.2,100,30.00,3.0,Calm,Calm,-,N/A,,Clear,0,2013-08-02 10:55:00
7:15 AM,63.9,63.9,100,30.00,4.0,Calm,Calm,-,N/A,,Clear,0,2013-08-02 11:15:00
7:35 AM,65.7,65.7,100,30.01,4.0,Calm,Calm,-,N/A,,Clear,0,2013-08-02 11:35:00
7:55 AM,67.1,66.9,99,30.01,7.0,Calm,Calm,-,N/A,,Clear,0,2013-08-02 11:55:00
8:35 AM,70.7,66.7,87,30.03,7.0,Calm,Calm,-,N/A,,Clear,0,2013-08-02 12:35:00
8:55 AM,72.3,66.7,83,30.03,7.0,Calm,Calm,-,N/A,,Clear,0,2013-08-02 12:55:00
9:15 AM,73.2,66.9,81,30.03,7.0,Calm,Calm,-,N/A,,Clear,0,2013-08-02 13:15:00
9:35 AM,74.5,67.1,78,30.02,7.0,Calm,Calm,-,N/A,,Clear,0,2013-08-02 13:35:00
9:55 AM,77.0,65.3,67,30.03,7.0,NNE,4.6,-,N/A,,Clear,20,2013-08-02 13:55:00
10:15 AM,76.8,64.2,65,30.03,7.0,Calm,Calm,-,N/A,,Clear,0,2013-08-02 14:15:00
10:35 AM,78.4,63.0,59,30.03,10.0,Calm,Calm,-,N/A,,Clear,0,2013-08-02 14:35:00
10:55 AM,78.4,61.7,56,30.04,10.0,NNW,3.5,-,N/A,,Clear,340,2013-08-02 14:55:00
11:15 AM,79.3,62.2,56,30.04,10.0,Calm,Calm,-,N/A,,Clear,0,2013-08-02 15:15:00
11:35 AM,79.9,60.1,51,30.05,10.0,NNW,3.5,-,N/A,,Clear,330,2013-08-02 15:35:00
11:55 AM,80.4,62.1,53,30.05,10.0,NNW,3.5,-,N/A,,Clear,330,2013-08-02 15:55:00
12:15 PM,80.8,60.1,49,30.06,10.0,Calm,Calm,-,N/A,,Scattered Clouds,0,2013-08-02 16:15:00
12:35 PM,81.7,63.3,54,30.06,10.0,Calm,Calm,-,N/A,,Mostly Cloudy,0,2013-08-02 16:35:00
12:55 PM,82.2,61.9,50,30.05,7.0,Calm,Calm,-,N/A,,Scattered Clouds,0,2013-08-02 16:55:00
1:15 PM,82.6,62.6,51,30.05,5.0,Calm,Calm,-,N/A,,Haze,0,2013-08-02 17:15:00
1:35 PM,82.9,62.8,50,30.05,7.0,Calm,Calm,-,N/A,,Clear,0,2013-08-02 17:35:00
1:55 PM,83.3,63.5,51,30.04,5.0,Calm,Calm,-,N/A,,Haze,0,2013-08-02 17:55:00
2:15 PM,82.9,63.7,52,30.04,5.0,NNW,3.5,-,N/A,,Haze,340,2013-08-02 18:15:00
2:35 PM,83.3,63.5,51,30.03,7.0,SW,4.6,-,N/A,,Scattered Clouds,230,2013-08-02 18:35:00
2:55 PM,83.8,62.6,49,30.03,7.0,WSW,3.5,-,N/A,,Scattered Clouds,240,2013-08-02 18:55:00
3:15 PM,84.2,63.3,49,30.02,4.0,Calm,Calm,-,N/A,,Haze,0,2013-08-02 19:15:00
3:35 PM,84.6,64.2,50,30.02,7.0,WNW,3.5,-,N/A,,Scattered Clouds,290,2013-08-02 19:35:00
3:55 PM,84.4,63.7,50,30.01,5.0,Calm,Calm,-,N/A,,Haze,0,2013-08-02 19:55:00
4:15 PM,84.7,63.1,48,30.01,7.0,Calm,Calm,-,N/A,,Clear,0,2013-08-02 20:15:00
4:35 PM,85.1,63.7,49,30.01,7.0,SSW,3.5,-,N/A,,Clear,200,2013-08-02 20:35:00
4:55 PM,84.9,64.4,50,30.01,5.0,SW,4.6,-,N/A,,Haze,230,2013-08-02 20:55:00
5:15 PM,84.6,65.8,53,30.01,10.0,West,4.6,-,N/A,,Clear,280,2013-08-02 21:15:00
5:35 PM,83.5,65.5,54,30.01,10.0,WSW,3.5,-,N/A,,Clear,240,2013-08-02 21:35:00
5:55 PM,84.2,66.2,55,30.01,7.0,WSW,3.5,-,N/A,,Clear,240,2013-08-02 21:55:00
6:15 PM,82.6,67.1,59,30.01,7.0,Calm,Calm,-,N/A,,Clear,0,2013-08-02 22:15:00
6:35 PM,82.9,67.1,59,30.01,10.0,Calm,Calm,-,N/A,,Clear,0,2013-08-02 22:35:00
6:55 PM,80.2,69.1,69,30.01,7.0,Calm,Calm,-,N/A,,Clear,0,2013-08-02 22:55:00
7:15 PM,81.5,68.4,64,30.01,7.0,Calm,Calm,-,N/A,,Clear,0,2013-08-02 23:15:00
7:35 PM,81.0,68.2,65,30.01,7.0,Calm,Calm,-,N/A,,Clear,0,2013-08-02 23:35:00
7:55 PM,75.4,72.0,89,30.01,7.0,Calm,Calm,-,N/A,,Clear,0,2013-08-02 23:55:00
8:15 PM,73.2,71.1,93,30.01,4.0,Calm,Calm,-,N/A,,Clear,0,2013-08-03 00:15:00
8:35 PM,71.6,70.0,95,30.01,5.0,Calm,Calm,-,N/A,,Clear,0,2013-08-03 00:35:00
8:55 PM,70.9,69.8,96,30.02,5.0,Calm,Calm,-,N/A,,Clear,0,2013-08-03 00:55:00
9:15 PM,69.4,68.5,97,30.03,4.0,Calm,Calm,-,N/A,,Clear,0,2013-08-03 01:15:00
9:35 PM,69.3,68.5,98,30.03,4.0,Calm,Calm,-,N/A,,Clear,0,2013-08-03 01:35:00
9:55 PM,68.5,68.0,98,30.04,4.0,Calm,Calm,-,N/A,,Clear,0,2013-08-03 01:55:00
10:15 PM,68.0,67.5,98,30.04,4.0,Calm,Calm,-,N/A,,Clear,0,2013-08-03 02:15:00
10:35 PM,67.8,67.3,98,30.04,3.0,Calm,Calm,-,N/A,,Clear,0,2013-08-03 02:35:00
10:55 PM,67.8,67.5,99,30.04,4.0,Calm,Calm,-,N/A,,Clear,0,2013-08-03 02:55:00
11:15 PM,68.0,67.5,98,30.04,4.0,Calm,Calm,-,N/A,,Clear,0,2013-08-03 03:15:00
11:35 PM,67.6,67.3,99,30.04,4.0,Calm,Calm,-,N/A,,Clear,0,2013-08-03 03:35:00
11:55 PM,68.4,68.2,99,30.04,4.0,Calm,Calm,-,N/A,,Clear,0,2013-08-03 03:55:00